createdAt,value
2019-02-24T00:00:04.861Z,60.35
2019-02-24T00:00:30.950Z,60.44
2019-02-24T00:00:57.074Z,60.25
2019-02-24T00:01:23.208Z,60.44
2019-02-24T00:01:49.341Z,60.35
2019-02-24T00:02:15.443Z,60.44
2019-02-24T00:02:41.553Z,60.25
2019-02-24T00:03:07.656Z,60.25
2019-02-24T00:03:33.764Z,60.44
2019-02-24T00:04:00.000Z,60.35
2019-02-24T00:04:26.108Z,60.63
2019-02-24T00:04:52.213Z,60.53
2019-02-24T00:05:18.315Z,60.44
2019-02-24T00:05:44.418Z,60.35
2019-02-24T00:06:10.510Z,60.53
2019-02-24T00:06:36.611Z,60.53
2019-02-24T00:07:02.709Z,60.53
2019-02-24T00:07:28.803Z,60.25
2019-02-24T00:07:54.911Z,60.35
2019-02-24T00:08:21.016Z,60.06
2019-02-24T00:08:47.127Z,59.77
2019-02-24T00:09:13.227Z,59.39
2019-02-24T00:09:39.338Z,59.68
2019-02-24T00:10:05.472Z,59.77
2019-02-24T00:10:31.580Z,59.49
2019-02-24T00:10:57.679Z,59.68
2019-02-24T00:11:24.782Z,59.49
2019-02-24T00:11:50.875Z,59.68
2019-02-24T00:12:16.986Z,59.68
2019-02-24T00:12:43.089Z,59.58
2019-02-24T00:13:09.198Z,59.49
2019-02-24T00:13:35.301Z,59.39
2019-02-24T00:14:01.445Z,59.49
2019-02-24T00:14:27.544Z,59.68
2019-02-24T00:14:53.641Z,59.77
2019-02-24T00:15:19.747Z,59.77
2019-02-24T00:15:45.850Z,59.58
2019-02-24T00:16:11.953Z,60.44
2019-02-24T00:16:38.068Z,60.25
2019-02-24T00:17:04.198Z,60.53
2019-02-24T00:17:30.312Z,60.53
2019-02-24T00:17:56.401Z,60.25
2019-02-24T00:18:22.510Z,60.06
2019-02-24T00:18:48.609Z,60.44
2019-02-24T00:19:14.715Z,60.72
2019-02-24T00:19:40.827Z,60.63
2019-02-24T00:20:06.927Z,61.58
2019-02-24T00:20:33.064Z,61.1
2019-02-24T00:20:59.179Z,61.2
2019-02-24T00:21:25.290Z,61.48
2019-02-24T00:21:51.384Z,60.72
2019-02-24T00:22:17.493Z,60.82
2019-02-24T00:22:43.599Z,60.72
2019-02-24T00:23:09.704Z,60.53
2019-02-24T00:23:35.813Z,60.63
2019-02-24T00:24:01.950Z,60.44
2019-02-24T00:24:28.057Z,60.44
2019-02-24T00:24:54.194Z,60.44
2019-02-24T00:25:20.293Z,60.53
2019-02-24T00:25:46.399Z,60.44
2019-02-24T00:26:12.505Z,59.96
2019-02-24T00:26:38.605Z,60.16
2019-02-24T00:27:04.712Z,59.96
2019-02-24T00:27:30.810Z,60.35
2019-02-24T00:27:56.921Z,60.44
2019-02-24T00:28:24.018Z,60.25
2019-02-24T00:28:50.123Z,60.25
2019-02-24T00:29:16.226Z,60.35
2019-02-24T00:29:42.326Z,60.25
2019-02-24T00:30:08.428Z,60.25
2019-02-24T00:30:34.541Z,60.25
2019-02-24T00:31:00.636Z,60.44
2019-02-24T00:31:26.744Z,60.25
2019-02-24T00:31:52.852Z,60.25
2019-02-24T00:32:18.959Z,60.35
2019-02-24T00:32:45.063Z,60.25
2019-02-24T00:33:11.203Z,60.44
2019-02-24T00:33:37.316Z,60.35
2019-02-24T00:34:03.414Z,60.06
2019-02-24T00:34:29.518Z,59.99
2019-02-24T00:34:55.625Z,60.38
2019-02-24T00:35:21.735Z,60.38
2019-02-24T00:35:47.866Z,60.28
2019-02-24T00:36:13.971Z,60.47
2019-02-24T00:36:40.079Z,60.28
2019-02-24T00:37:06.183Z,60.18
2019-02-24T00:37:32.289Z,60.53
2019-02-24T00:37:58.399Z,60.53
2019-02-24T00:38:24.525Z,60.66
2019-02-24T00:38:50.627Z,60.38
2019-02-24T00:39:16.732Z,60.28
2019-02-24T00:39:42.844Z,60.47
2019-02-24T00:40:08.964Z,60.18
2019-02-24T00:40:35.053Z,60.28
2019-02-24T00:41:01.158Z,60.28
2019-02-24T00:41:27.264Z,60.18
2019-02-24T00:41:53.372Z,60.25
2019-02-24T00:42:19.478Z,60.44
2019-02-24T00:42:45.583Z,60.63
2019-02-24T00:43:11.705Z,60.57
2019-02-24T00:43:37.790Z,60.44
2019-02-24T00:44:03.922Z,60.38
2019-02-24T00:44:30.035Z,59.87
2019-02-24T00:44:56.132Z,60.06
2019-02-24T00:45:22.238Z,60.38
2019-02-24T00:45:48.349Z,60.72
2019-02-24T00:46:14.456Z,60.94
2019-02-24T00:46:40.556Z,60.72
2019-02-24T00:47:06.665Z,60.63
2019-02-24T00:47:32.767Z,60.44
2019-02-24T00:47:58.874Z,60.75
2019-02-24T00:48:24.974Z,60.82
2019-02-24T00:48:51.088Z,60.63
2019-02-24T00:49:17.193Z,60.72
2019-02-24T00:49:43.297Z,60.63
2019-02-24T00:50:09.407Z,60.72
2019-02-24T00:50:35.503Z,60.72
2019-02-24T00:51:01.612Z,60.91
2019-02-24T00:51:27.742Z,61.1
2019-02-24T00:51:53.847Z,60.72
2019-02-24T00:52:19.954Z,60.35
2019-02-24T00:52:46.090Z,60.25
2019-02-24T00:53:12.189Z,60.35
2019-02-24T00:53:38.295Z,60.44
2019-02-24T00:54:04.400Z,60.53
2019-02-24T00:54:30.501Z,60.25
2019-02-24T00:54:56.609Z,60.35
2019-02-24T00:55:22.717Z,60.44
2019-02-24T00:55:48.820Z,60.44
2019-02-24T00:56:14.928Z,60.63
2019-02-24T00:56:41.093Z,60.44
2019-02-24T00:57:07.138Z,60.82
2019-02-24T00:57:33.252Z,60.63
2019-02-24T00:57:59.355Z,60.72
2019-02-24T00:58:26.989Z,60.63
2019-02-24T00:58:53.099Z,60.53
2019-02-24T00:59:19.204Z,60.91
2019-02-24T00:59:45.314Z,60.72
2019-02-24T01:00:11.414Z,60.63
2019-02-24T01:00:37.519Z,60.72
2019-02-24T01:01:03.629Z,60.63
2019-02-24T01:01:29.750Z,60.72
2019-02-24T01:01:55.860Z,61.39
2019-02-24T01:02:21.966Z,61.2
2019-02-24T01:02:48.064Z,61.58
2019-02-24T01:03:14.169Z,61.48
2019-02-24T01:03:40.282Z,61.39
2019-02-24T01:04:06.383Z,61.48
2019-02-24T01:04:32.496Z,61.48
2019-02-24T01:04:58.601Z,61.2
2019-02-24T01:05:24.703Z,61.48
2019-02-24T01:05:50.806Z,61.77
2019-02-24T01:06:16.920Z,61.39
2019-02-24T01:06:43.018Z,61.39
2019-02-24T01:07:09.133Z,61.48
2019-02-24T01:07:35.239Z,61.45
2019-02-24T01:08:01.340Z,61.48
2019-02-24T01:08:27.476Z,61.29
2019-02-24T01:08:53.572Z,61.39
2019-02-24T01:09:19.674Z,61.93
2019-02-24T01:09:45.787Z,62.02
2019-02-24T01:10:11.893Z,62.34
2019-02-24T01:10:37.993Z,62.15
2019-02-24T01:11:04.105Z,62.24
2019-02-24T01:11:30.208Z,62.15
2019-02-24T01:11:56.352Z,62.24
2019-02-24T01:12:22.453Z,62.15
2019-02-24T01:12:48.557Z,62.05
2019-02-24T01:13:14.671Z,61.96
2019-02-24T01:13:40.807Z,62.24
2019-02-24T01:14:06.911Z,61.58
2019-02-24T01:14:33.012Z,61.77
2019-02-24T01:14:59.109Z,61.55
2019-02-24T01:15:25.219Z,61.58
2019-02-24T01:15:51.361Z,61.45
2019-02-24T01:16:17.470Z,61.55
2019-02-24T01:16:43.579Z,61.65
2019-02-24T01:17:09.679Z,61.36
2019-02-24T01:17:35.782Z,61.17
2019-02-24T01:18:01.885Z,61.55
2019-02-24T01:18:27.995Z,62.21
2019-02-24T01:18:54.103Z,61.83
2019-02-24T01:19:20.208Z,62.12
2019-02-24T01:19:46.346Z,62.21
2019-02-24T01:20:12.452Z,62.4
2019-02-24T01:20:38.560Z,62.02
2019-02-24T01:21:04.657Z,62.21
2019-02-24T01:21:30.791Z,62.69
2019-02-24T01:21:56.888Z,62.5
2019-02-24T01:22:22.991Z,62.5
2019-02-24T01:22:49.102Z,62.4
2019-02-24T01:23:15.209Z,63.35
2019-02-24T01:23:41.312Z,62.5
2019-02-24T01:24:07.443Z,62.5
2019-02-24T01:24:33.545Z,62.69
2019-02-24T01:24:59.655Z,63.45
2019-02-24T01:25:25.759Z,62.69
2019-02-24T01:25:51.871Z,62.69
2019-02-24T01:26:18.005Z,62.78
2019-02-24T01:26:44.106Z,63.35
2019-02-24T01:27:10.216Z,62.78
2019-02-24T01:27:36.320Z,63.07
2019-02-24T01:28:02.456Z,63.26
2019-02-24T01:28:30.535Z,63.07
2019-02-24T01:28:56.670Z,62.97
2019-02-24T01:29:22.804Z,63.73
2019-02-24T01:29:48.912Z,63.83
2019-02-24T01:30:15.021Z,63.89
2019-02-24T01:30:41.122Z,63.73
2019-02-24T01:31:07.232Z,63.73
2019-02-24T01:31:33.332Z,64.49
2019-02-24T01:31:59.434Z,64.11
2019-02-24T01:32:25.543Z,63.79
2019-02-24T01:32:51.654Z,63.79
2019-02-24T01:33:17.759Z,63.79
2019-02-24T01:33:43.892Z,63.6
2019-02-24T01:34:09.995Z,64.08
2019-02-24T01:34:36.124Z,64.46
2019-02-24T01:35:02.229Z,63.79
2019-02-24T01:35:28.336Z,63.7
2019-02-24T01:35:54.449Z,63.79
2019-02-24T01:36:20.579Z,63.32
2019-02-24T01:36:46.679Z,63.6
2019-02-24T01:37:12.792Z,63.79
2019-02-24T01:37:38.894Z,64.17
2019-02-24T01:38:04.998Z,64.08
2019-02-24T01:38:31.097Z,64.65
2019-02-24T01:38:57.251Z,64.56
2019-02-24T01:39:23.344Z,65.06
2019-02-24T01:39:49.454Z,64.87
2019-02-24T01:40:15.563Z,64.21
2019-02-24T01:40:41.668Z,64.02
2019-02-24T01:41:07.777Z,64.02
2019-02-24T01:41:33.884Z,64.3
2019-02-24T01:41:59.988Z,63.79
2019-02-24T01:42:26.096Z,64.08
2019-02-24T01:42:52.196Z,64.17
2019-02-24T01:43:18.312Z,64.02
2019-02-24T01:43:44.437Z,64.3
2019-02-24T01:44:10.554Z,64.3
2019-02-24T01:44:36.656Z,64.11
2019-02-24T01:45:02.772Z,64.11
2019-02-24T01:45:28.869Z,64.02
2019-02-24T01:45:54.970Z,64.4
2019-02-24T01:46:21.080Z,64.11
2019-02-24T01:46:47.183Z,64.11
2019-02-24T01:47:13.332Z,64.49
2019-02-24T01:47:39.400Z,64.4
2019-02-24T01:48:05.504Z,64.21
2019-02-24T01:48:31.641Z,64.11
2019-02-24T01:48:57.752Z,64.11
2019-02-24T01:49:23.852Z,64.02
2019-02-24T01:49:49.961Z,64.21
2019-02-24T01:50:16.065Z,64.49
2019-02-24T01:50:42.162Z,63.73
2019-02-24T01:51:08.273Z,63.64
2019-02-24T01:51:34.385Z,63.73
2019-02-24T01:52:00.485Z,63.45
2019-02-24T01:52:26.591Z,63.26
2019-02-24T01:52:52.734Z,62.97
2019-02-24T01:53:18.860Z,63.26
2019-02-24T01:53:44.973Z,62.88
2019-02-24T01:54:11.072Z,62.31
2019-02-24T01:54:37.176Z,62.59
2019-02-24T01:55:03.289Z,62.5
2019-02-24T01:55:29.428Z,62.69
2019-02-24T01:55:55.531Z,62.97
2019-02-24T01:56:21.655Z,62.78
2019-02-24T01:56:47.755Z,62.59
2019-02-24T01:57:13.864Z,62.78
2019-02-24T01:57:39.964Z,62.59
2019-02-24T01:58:06.096Z,62.5
2019-02-24T01:58:35.263Z,63.35
2019-02-24T01:59:00.292Z,62.59
2019-02-24T01:59:26.395Z,62.31
2019-02-24T01:59:52.508Z,62.69
2019-02-24T02:00:18.638Z,62.5
2019-02-24T02:00:44.742Z,62.59
2019-02-24T02:01:10.847Z,62.88
2019-02-24T02:01:36.958Z,63.17
2019-02-24T02:02:03.071Z,62.88
2019-02-24T02:02:29.170Z,63.45
2019-02-24T02:02:55.273Z,63.45
2019-02-24T02:03:21.376Z,63.73
2019-02-24T02:03:47.490Z,63.92
2019-02-24T02:04:13.600Z,63.73
2019-02-24T02:04:39.701Z,63.83
2019-02-24T02:05:05.804Z,63.73
2019-02-24T02:05:31.909Z,63.92
2019-02-24T02:05:58.052Z,64.02
2019-02-24T02:06:24.183Z,63.73
2019-02-24T02:06:50.283Z,63.92
2019-02-24T02:07:16.396Z,63.83
2019-02-24T02:07:42.530Z,63.83
2019-02-24T02:08:08.634Z,63.64
2019-02-24T02:08:34.748Z,63.73
2019-02-24T02:09:00.847Z,63.35
2019-02-24T02:09:26.953Z,62.97
2019-02-24T02:09:53.055Z,63.07
2019-02-24T02:10:19.159Z,62.97
2019-02-24T02:10:45.261Z,62.97
2019-02-24T02:11:11.370Z,62.97
2019-02-24T02:11:37.473Z,63.07
2019-02-24T02:12:03.580Z,63.35
2019-02-24T02:12:29.682Z,63.45
2019-02-24T02:12:57.354Z,63.26
2019-02-24T02:13:21.919Z,63.45
2019-02-24T02:13:48.029Z,63.26
2019-02-24T02:14:14.126Z,63.17
2019-02-24T02:14:40.242Z,63.45
2019-02-24T02:15:06.350Z,63.73
2019-02-24T02:15:32.485Z,63.73
2019-02-24T02:15:58.593Z,63.45
2019-02-24T02:16:24.694Z,63.83
2019-02-24T02:16:50.839Z,63.83
2019-02-24T02:17:16.945Z,63.83
2019-02-24T02:17:43.050Z,63.54
2019-02-24T02:18:09.159Z,63.73
2019-02-24T02:18:35.261Z,63.73
2019-02-24T02:19:01.365Z,63.73
2019-02-24T02:19:27.465Z,63.64
2019-02-24T02:19:53.572Z,64.02
2019-02-24T02:20:19.705Z,63.83
2019-02-24T02:20:45.821Z,63.26
2019-02-24T02:21:11.920Z,63.83
2019-02-24T02:21:38.049Z,63.64
2019-02-24T02:22:04.151Z,63.73
2019-02-24T02:22:30.261Z,63.73
2019-02-24T02:22:56.395Z,63.64
2019-02-24T02:23:22.505Z,63.73
2019-02-24T02:23:48.637Z,63.26
2019-02-24T02:24:14.737Z,63.64
2019-02-24T02:24:40.845Z,63.54
2019-02-24T02:25:06.971Z,63.83
2019-02-24T02:25:33.069Z,63.64
2019-02-24T02:25:59.182Z,64.02
2019-02-24T02:26:25.286Z,63.83
2019-02-24T02:26:51.388Z,63.64
2019-02-24T02:27:17.493Z,63.92
2019-02-24T02:27:43.596Z,63.64
2019-02-24T02:28:09.698Z,63.26
2019-02-24T02:28:43.712Z,63.35
2019-02-24T02:29:03.889Z,63.45
2019-02-24T02:29:29.999Z,63.26
2019-02-24T02:29:56.107Z,63.73
2019-02-24T02:30:22.210Z,63.17
2019-02-24T02:30:48.375Z,63.26
2019-02-24T02:31:14.489Z,62.78
2019-02-24T02:31:40.616Z,62.97
2019-02-24T02:32:06.720Z,63.26
2019-02-24T02:32:32.829Z,63.92
2019-02-24T02:32:58.957Z,63.92
2019-02-24T02:33:25.109Z,63.73
2019-02-24T02:33:51.220Z,63.92
2019-02-24T02:34:17.326Z,63.54
2019-02-24T02:34:43.436Z,63.83
2019-02-24T02:35:09.542Z,63.83
2019-02-24T02:35:35.648Z,63.83
2019-02-24T02:36:01.756Z,63.83
2019-02-24T02:36:27.865Z,63.73
2019-02-24T02:36:53.963Z,64.02
2019-02-24T02:37:20.069Z,63.83
2019-02-24T02:37:46.175Z,63.83
2019-02-24T02:38:12.287Z,63.54
2019-02-24T02:38:38.384Z,64.3
2019-02-24T02:39:04.489Z,64.02
2019-02-24T02:39:30.599Z,64.11
2019-02-24T02:39:56.735Z,64.02
2019-02-24T02:40:22.872Z,64.27
2019-02-24T02:40:48.978Z,63.89
2019-02-24T02:41:15.081Z,64.17
2019-02-24T02:41:41.185Z,64.84
2019-02-24T02:42:07.344Z,65.12
2019-02-24T02:42:33.447Z,65.03
2019-02-24T02:42:59.553Z,65.6
2019-02-24T02:43:25.661Z,65.31
2019-02-24T02:43:51.787Z,65.98
2019-02-24T02:44:17.903Z,66.08
2019-02-24T02:44:44.076Z,66.17
2019-02-24T02:45:10.183Z,66.74
2019-02-24T02:45:36.291Z,66.55
2019-02-24T02:46:02.401Z,66.64
2019-02-24T02:46:28.559Z,66.64
2019-02-24T02:46:54.690Z,66.74
2019-02-24T02:47:20.796Z,66.64
2019-02-24T02:47:46.896Z,66.46
2019-02-24T02:48:13.002Z,66.64
2019-02-24T02:48:39.109Z,66.64
2019-02-24T02:49:05.219Z,66.83
2019-02-24T02:49:31.320Z,66.55
2019-02-24T02:49:57.439Z,66.27
2019-02-24T02:50:23.552Z,67.02
2019-02-24T02:50:49.657Z,66.74
2019-02-24T02:51:15.758Z,66.83
2019-02-24T02:51:41.891Z,66.83
2019-02-24T02:52:07.999Z,66.83
2019-02-24T02:52:34.128Z,67.02
2019-02-24T02:53:00.271Z,66.93
2019-02-24T02:53:26.396Z,67.12
2019-02-24T02:53:52.499Z,66.83
2019-02-24T02:54:18.644Z,66.55
2019-02-24T02:54:44.782Z,66.55
2019-02-24T02:55:10.937Z,66.83
2019-02-24T02:55:37.040Z,66.64
2019-02-24T02:56:03.140Z,66.93
2019-02-24T02:56:29.267Z,66.93
2019-02-24T02:56:55.378Z,67.12
2019-02-24T02:57:21.483Z,67.21
2019-02-24T02:57:47.585Z,67.21
2019-02-24T02:58:13.696Z,67.08
2019-02-24T02:58:39.858Z,67.12
2019-02-24T02:59:07.967Z,66.93
2019-02-24T02:59:34.101Z,66.83
2019-02-24T03:00:00.270Z,67.02
2019-02-24T03:00:26.406Z,66.83
2019-02-24T03:00:52.519Z,66.74
2019-02-24T03:01:18.620Z,66.83
2019-02-24T03:01:44.717Z,67.02
2019-02-24T03:02:10.828Z,67.02
2019-02-24T03:02:38.942Z,67.02
2019-02-24T03:03:05.066Z,66.93
2019-02-24T03:03:31.185Z,66.36
2019-02-24T03:03:57.321Z,66.83
2019-02-24T03:04:23.414Z,65.79
2019-02-24T03:04:49.555Z,65.88
2019-02-24T03:05:15.690Z,66.46
2019-02-24T03:05:41.800Z,66.64
2019-02-24T03:06:07.909Z,66.74
2019-02-24T03:06:34.019Z,66.64
2019-02-24T03:07:00.136Z,66.46
2019-02-24T03:07:26.290Z,66.55
2019-02-24T03:07:52.349Z,66.36
2019-02-24T03:08:18.437Z,66.36
2019-02-24T03:08:44.555Z,66.46
2019-02-24T03:09:10.684Z,66.55
2019-02-24T03:09:36.815Z,66.08
2019-02-24T03:10:02.989Z,66.27
2019-02-24T03:10:29.073Z,66.27
2019-02-24T03:10:55.183Z,65.88
2019-02-24T03:11:21.328Z,66.08
2019-02-24T03:11:47.450Z,65.6
2019-02-24T03:12:13.589Z,65.6
2019-02-24T03:12:39.686Z,65.6
2019-02-24T03:13:05.793Z,64.75
2019-02-24T03:13:31.916Z,65.03
2019-02-24T03:13:58.032Z,64.75
2019-02-24T03:14:24.129Z,64.94
2019-02-24T03:14:50.238Z,64.65
2019-02-24T03:15:16.346Z,65.31
2019-02-24T03:15:42.441Z,65.6
2019-02-24T03:16:08.549Z,65.6
2019-02-24T03:16:34.662Z,65.31
2019-02-24T03:17:00.754Z,65.98
2019-02-24T03:17:26.867Z,66.08
2019-02-24T03:17:52.995Z,66.08
2019-02-24T03:18:19.104Z,65.79
2019-02-24T03:18:45.235Z,65.79
2019-02-24T03:19:11.342Z,65.79
2019-02-24T03:19:37.501Z,65.88
2019-02-24T03:20:03.592Z,66.27
2019-02-24T03:20:29.701Z,66.27
2019-02-24T03:20:55.802Z,66.08
2019-02-24T03:21:21.912Z,65.88
2019-02-24T03:21:48.016Z,66.17
2019-02-24T03:22:14.182Z,66.08
2019-02-24T03:22:40.284Z,65.98
2019-02-24T03:23:06.398Z,65.88
2019-02-24T03:23:32.502Z,65.88
2019-02-24T03:23:58.603Z,65.79
2019-02-24T03:24:24.706Z,65.79
2019-02-24T03:24:50.822Z,66.08
2019-02-24T03:25:16.926Z,65.88
2019-02-24T03:25:43.031Z,66.17
2019-02-24T03:26:09.138Z,66.27
2019-02-24T03:26:35.289Z,66.17
2019-02-24T03:27:01.450Z,66.08
2019-02-24T03:27:27.551Z,65.88
2019-02-24T03:27:53.664Z,66.17
2019-02-24T03:28:19.789Z,66.27
2019-02-24T03:28:45.894Z,65.69
2019-02-24T03:29:14.031Z,66.36
2019-02-24T03:29:40.140Z,65.98
2019-02-24T03:30:06.237Z,66.36
2019-02-24T03:30:32.434Z,65.98
2019-02-24T03:30:58.573Z,65.98
2019-02-24T03:31:24.672Z,66.08
2019-02-24T03:31:50.768Z,65.41
2019-02-24T03:32:16.897Z,65.6
2019-02-24T03:32:43.029Z,65.69
2019-02-24T03:33:09.134Z,65.22
2019-02-24T03:33:35.327Z,65.03
2019-02-24T03:34:01.537Z,65.12
2019-02-24T03:34:27.651Z,65.22
2019-02-24T03:34:53.781Z,65.12
2019-02-24T03:35:19.883Z,65.22
2019-02-24T03:35:46.021Z,65.12
2019-02-24T03:36:12.126Z,65.03
2019-02-24T03:36:38.235Z,64.94
2019-02-24T03:37:04.336Z,64.84
2019-02-24T03:37:30.445Z,65.31
2019-02-24T03:37:56.559Z,65.31
2019-02-24T03:38:22.660Z,64.94
2019-02-24T03:38:48.766Z,64.75
2019-02-24T03:39:14.875Z,65.03
2019-02-24T03:39:40.983Z,65.03
2019-02-24T03:40:07.090Z,65.22
2019-02-24T03:40:33.217Z,65.31
2019-02-24T03:40:59.370Z,64.27
2019-02-24T03:41:25.502Z,64.27
2019-02-24T03:41:51.643Z,64.56
2019-02-24T03:42:17.752Z,64.37
2019-02-24T03:42:43.879Z,64.27
2019-02-24T03:43:09.982Z,64.27
2019-02-24T03:43:36.097Z,64.37
2019-02-24T03:44:02.197Z,64.17
2019-02-24T03:44:28.299Z,63.98
2019-02-24T03:44:54.410Z,64.08
2019-02-24T03:45:20.563Z,63.98
2019-02-24T03:45:46.667Z,63.7
2019-02-24T03:46:12.811Z,63.89
2019-02-24T03:46:38.915Z,64.08
2019-02-24T03:47:05.016Z,64.17
2019-02-24T03:47:31.157Z,63.98
2019-02-24T03:47:57.259Z,63.89
2019-02-24T03:48:23.362Z,64.08
2019-02-24T03:48:49.470Z,64.37
2019-02-24T03:49:15.602Z,64.37
2019-02-24T03:49:41.743Z,64.56
2019-02-24T03:50:07.847Z,63.89
2019-02-24T03:50:33.957Z,64.08
2019-02-24T03:51:00.061Z,64.37
2019-02-24T03:51:26.163Z,64.27
2019-02-24T03:51:52.300Z,63.6
2019-02-24T03:52:18.398Z,63.7
2019-02-24T03:52:44.512Z,63.51
2019-02-24T03:53:10.606Z,63.7
2019-02-24T03:53:36.712Z,63.23
2019-02-24T03:54:02.844Z,63.89
2019-02-24T03:54:28.947Z,63.98
2019-02-24T03:54:55.049Z,63.79
2019-02-24T03:55:21.249Z,64.08
2019-02-24T03:55:47.361Z,63.98
2019-02-24T03:56:13.462Z,64.08
2019-02-24T03:56:39.595Z,63.98
2019-02-24T03:57:05.706Z,64.17
2019-02-24T03:57:31.812Z,64.27
2019-02-24T03:57:57.912Z,63.7
2019-02-24T03:58:24.045Z,63.51
2019-02-24T03:58:50.163Z,63.7
2019-02-24T03:59:18.249Z,63.7
2019-02-24T03:59:44.349Z,63.6
2019-02-24T04:00:10.491Z,63.79
2019-02-24T04:00:36.595Z,63.79
2019-02-24T04:01:02.732Z,63.89
2019-02-24T04:01:28.832Z,63.6
2019-02-24T04:01:54.939Z,63.6
2019-02-24T04:02:21.046Z,63.89
2019-02-24T04:02:47.203Z,63.79
2019-02-24T04:03:13.284Z,63.79
2019-02-24T04:03:39.382Z,63.7
2019-02-24T04:04:05.496Z,63.79
2019-02-24T04:04:31.636Z,63.79
2019-02-24T04:04:57.737Z,63.7
2019-02-24T04:05:23.911Z,63.51
2019-02-24T04:05:49.999Z,63.89
2019-02-24T04:06:16.112Z,64.17
2019-02-24T04:06:42.208Z,64.08
2019-02-24T04:07:08.333Z,64.08
2019-02-24T04:07:34.429Z,64.17
2019-02-24T04:08:00.538Z,63.89
2019-02-24T04:08:26.645Z,63.7
2019-02-24T04:08:52.751Z,63.79
2019-02-24T04:09:18.860Z,63.89
2019-02-24T04:09:44.959Z,63.7
2019-02-24T04:10:11.129Z,63.6
2019-02-24T04:10:37.235Z,64.08
2019-02-24T04:11:03.361Z,63.98
2019-02-24T04:11:29.499Z,63.98
2019-02-24T04:11:55.607Z,63.89
2019-02-24T04:12:21.712Z,63.89
2019-02-24T04:12:47.814Z,63.89
2019-02-24T04:13:13.922Z,64.37
2019-02-24T04:13:40.023Z,64.37
2019-02-24T04:14:06.126Z,63.89
2019-02-24T04:14:32.268Z,63.89
2019-02-24T04:14:58.414Z,64.08
2019-02-24T04:15:24.533Z,63.79
2019-02-24T04:15:50.657Z,64.37
2019-02-24T04:16:16.768Z,63.7
2019-02-24T04:16:42.863Z,63.7
2019-02-24T04:17:08.965Z,63.51
2019-02-24T04:17:35.069Z,63.7
2019-02-24T04:18:01.216Z,63.98
2019-02-24T04:18:27.314Z,64.27
2019-02-24T04:18:53.418Z,64.37
2019-02-24T04:19:19.529Z,64.17
2019-02-24T04:19:45.626Z,63.98
2019-02-24T04:20:11.735Z,63.89
2019-02-24T04:20:37.843Z,64.17
2019-02-24T04:21:03.950Z,64.08
2019-02-24T04:21:30.054Z,63.89
2019-02-24T04:21:56.166Z,63.89
2019-02-24T04:22:22.257Z,64.27
2019-02-24T04:22:48.368Z,64.17
2019-02-24T04:23:14.463Z,64.08
2019-02-24T04:23:40.594Z,64.37
2019-02-24T04:24:06.733Z,64.56
2019-02-24T04:24:32.829Z,64.17
2019-02-24T04:24:58.942Z,64.65
2019-02-24T04:25:25.051Z,65.41
2019-02-24T04:25:51.144Z,65.12
2019-02-24T04:26:17.252Z,65.03
2019-02-24T04:26:43.377Z,65.41
2019-02-24T04:27:11.674Z,64.65
2019-02-24T04:27:35.616Z,64.46
2019-02-24T04:28:01.726Z,64.46
2019-02-24T04:28:27.861Z,64.46
2019-02-24T04:28:54.004Z,64.46
2019-02-24T04:29:24.657Z,64.46
2019-02-24T04:29:47.261Z,64.27
2019-02-24T04:30:13.407Z,64.46
2019-02-24T04:30:39.464Z,64.46
2019-02-24T04:31:05.578Z,64.37
2019-02-24T04:31:31.677Z,64.75
2019-02-24T04:31:57.787Z,64.56
2019-02-24T04:32:23.885Z,64.27
2019-02-24T04:32:50.058Z,64.56
2019-02-24T04:33:16.161Z,64.75
2019-02-24T04:33:42.264Z,65.31
2019-02-24T04:34:08.364Z,65.03
2019-02-24T04:34:34.467Z,65.03
2019-02-24T04:35:00.568Z,65.12
2019-02-24T04:35:26.676Z,64.75
2019-02-24T04:35:52.782Z,64.84
2019-02-24T04:36:18.910Z,64.75
2019-02-24T04:36:45.023Z,65.12
2019-02-24T04:37:11.124Z,65.03
2019-02-24T04:37:37.233Z,65.12
2019-02-24T04:38:03.335Z,64.84
2019-02-24T04:38:30.425Z,64.56
2019-02-24T04:38:56.563Z,64.65
2019-02-24T04:39:22.674Z,65.12
2019-02-24T04:39:48.801Z,64.37
2019-02-24T04:40:14.909Z,65.31
2019-02-24T04:40:41.039Z,65.12
2019-02-24T04:41:07.174Z,65.22
2019-02-24T04:41:33.302Z,65.19
2019-02-24T04:41:59.407Z,64.71
2019-02-24T04:42:25.545Z,64.71
2019-02-24T04:42:51.651Z,65.09
2019-02-24T04:43:17.768Z,64.71
2019-02-24T04:43:43.898Z,65.09
2019-02-24T04:44:10.020Z,65.66
2019-02-24T04:44:36.123Z,65.37
2019-02-24T04:45:02.231Z,65.19
2019-02-24T04:45:28.356Z,65.28
2019-02-24T04:45:54.462Z,65.47
2019-02-24T04:46:20.573Z,65.19
2019-02-24T04:46:46.674Z,65.56
2019-02-24T04:47:12.818Z,65.31
2019-02-24T04:47:38.920Z,65.37
2019-02-24T04:48:05.025Z,65.22
2019-02-24T04:48:31.149Z,65.56
2019-02-24T04:48:57.254Z,65.47
2019-02-24T04:49:23.359Z,65.66
2019-02-24T04:49:49.467Z,65.69
2019-02-24T04:50:15.573Z,65.6
2019-02-24T04:50:41.708Z,65.5
2019-02-24T04:51:07.840Z,65.5
2019-02-24T04:51:33.947Z,65.5
2019-02-24T04:52:00.064Z,65.6
2019-02-24T04:52:26.208Z,65.69
2019-02-24T04:52:52.317Z,65.6
2019-02-24T04:53:18.428Z,65.03
2019-02-24T04:53:44.553Z,65.41
2019-02-24T04:54:10.654Z,65.31
2019-02-24T04:54:36.766Z,65.12
2019-02-24T04:55:02.896Z,65.22
2019-02-24T04:55:29.001Z,65.31
2019-02-24T04:55:55.104Z,65.22
2019-02-24T04:56:21.213Z,65.12
2019-02-24T04:56:47.329Z,65.22
2019-02-24T04:57:13.453Z,65.12
2019-02-24T04:57:39.552Z,65.22
2019-02-24T04:58:05.690Z,65.03
2019-02-24T04:58:31.798Z,65.12
2019-02-24T04:58:57.897Z,65.41
2019-02-24T04:59:24.414Z,64.84
2019-02-24T04:59:51.516Z,64.65
2019-02-24T05:00:17.650Z,65.12
2019-02-24T05:00:43.755Z,65.31
2019-02-24T05:01:09.858Z,65.5
2019-02-24T05:01:35.965Z,65.12
2019-02-24T05:02:02.069Z,65.31
2019-02-24T05:02:28.175Z,64.65
2019-02-24T05:02:54.304Z,64.37
2019-02-24T05:03:20.410Z,65.03
2019-02-24T05:03:46.518Z,64.75
2019-02-24T05:04:12.617Z,64.84
2019-02-24T05:04:38.720Z,64.65
2019-02-24T05:05:04.827Z,64.65
2019-02-24T05:05:30.933Z,65.12
2019-02-24T05:05:57.067Z,65.22
2019-02-24T05:06:23.170Z,65.12
2019-02-24T05:06:49.301Z,65.22
2019-02-24T05:07:15.410Z,65.5
2019-02-24T05:07:41.527Z,64.75
2019-02-24T05:08:07.696Z,64.84
2019-02-24T05:08:33.794Z,64.94
2019-02-24T05:08:59.898Z,65.12
2019-02-24T05:09:26.002Z,65.22
2019-02-24T05:09:52.139Z,65.31
2019-02-24T05:10:18.303Z,65.22
2019-02-24T05:10:44.412Z,65.28
2019-02-24T05:11:10.511Z,65
2019-02-24T05:11:36.619Z,65.31
2019-02-24T05:12:02.729Z,65.19
2019-02-24T05:12:28.854Z,65.09
2019-02-24T05:12:54.965Z,65.19
2019-02-24T05:13:21.075Z,65.28
2019-02-24T05:13:47.172Z,65
2019-02-24T05:14:13.282Z,65.09
2019-02-24T05:14:39.385Z,65.09
2019-02-24T05:15:05.515Z,65.12
2019-02-24T05:15:31.647Z,65.09
2019-02-24T05:15:57.756Z,64.9
2019-02-24T05:16:23.848Z,65.03
2019-02-24T05:16:49.965Z,65.22
2019-02-24T05:17:16.058Z,65.31
2019-02-24T05:17:43.161Z,65.22
2019-02-24T05:18:09.263Z,64.71
2019-02-24T05:18:35.373Z,65.03
2019-02-24T05:19:01.499Z,65.09
2019-02-24T05:19:27.606Z,65
2019-02-24T05:19:53.712Z,65.03
2019-02-24T05:20:19.823Z,65.09
2019-02-24T05:20:45.929Z,65.56
2019-02-24T05:21:12.031Z,65.37
2019-02-24T05:21:38.135Z,65.41
2019-02-24T05:22:04.244Z,65.56
2019-02-24T05:22:30.341Z,65.5
2019-02-24T05:22:56.514Z,65.41
2019-02-24T05:23:22.610Z,65.6
2019-02-24T05:23:48.739Z,65.6
2019-02-24T05:24:14.845Z,65.5
2019-02-24T05:24:40.960Z,65.56
2019-02-24T05:25:07.057Z,65.6
2019-02-24T05:25:33.188Z,65.6
2019-02-24T05:25:59.287Z,65.31
2019-02-24T05:26:25.389Z,65.79
2019-02-24T05:26:51.527Z,66.17
2019-02-24T05:27:17.661Z,66.17
2019-02-24T05:27:43.767Z,65.98
2019-02-24T05:28:09.908Z,66.27
2019-02-24T05:28:36.013Z,65.98
2019-02-24T05:29:02.150Z,65.88
2019-02-24T05:29:28.256Z,65.79
2019-02-24T05:29:56.346Z,65.79
2019-02-24T05:30:22.445Z,66.04
2019-02-24T05:30:48.552Z,66.08
2019-02-24T05:31:14.655Z,65.88
2019-02-24T05:31:40.789Z,65.95
2019-02-24T05:32:06.892Z,65.88
2019-02-24T05:32:33.027Z,65.98
2019-02-24T05:32:59.129Z,65.75
2019-02-24T05:33:25.229Z,65.88
2019-02-24T05:33:51.370Z,66.27
2019-02-24T05:34:17.484Z,66.17
2019-02-24T05:34:43.586Z,66.08
2019-02-24T05:35:09.697Z,65.98
2019-02-24T05:35:35.807Z,65.75
2019-02-24T05:36:01.909Z,65.98
2019-02-24T05:36:28.037Z,65.6
2019-02-24T05:36:54.144Z,65.75
2019-02-24T05:37:20.249Z,65.79
2019-02-24T05:37:46.347Z,66.08